createdAt,value
2022-08-29T00:00:00.000Z,12.58
2022-08-29T00:15:00.000Z,11.94
2022-08-29T00:30:00.000Z,11.58
2022-08-29T00:45:00.000Z,11.29
2022-08-29T01:00:00.000Z,11.34
2022-08-29T01:15:00.000Z,12.61
2022-08-29T01:30:00.000Z,13.45
2022-08-29T01:45:00.000Z,14.04
2022-08-29T02:00:00.000Z,13.6
2022-08-29T02:15:00.000Z,13.15
2022-08-29T02:30:00.000Z,13.58
2022-08-29T02:45:00.000Z,12.39
2022-08-29T03:00:00.000Z,11.69
2022-08-29T03:15:00.000Z,11.6
2022-08-29T03:30:00.000Z,11.41
2022-08-29T03:45:00.000Z,11.65
2022-08-29T04:00:00.000Z,11.78
2022-08-29T04:15:00.000Z,12.12
2022-08-29T04:30:00.000Z,12.67
2022-08-29T04:45:00.000Z,12.78
2022-08-29T05:00:00.000Z,12.07
2022-08-29T05:15:00.000Z,11.42
2022-08-29T05:30:00.000Z,10.95
2022-08-29T05:45:00.000Z,10.99
2022-08-29T06:00:00.000Z,11.27
2022-08-29T06:15:00.000Z,9.92
2022-08-29T06:30:00.000Z,9.09
2022-08-29T06:45:00.000Z,9.11
2022-08-29T07:00:00.000Z,7.84
2022-08-29T07:15:00.000Z,7.12
2022-08-29T07:30:00.000Z,6.47
2022-08-29T07:45:00.000Z,5.25
2022-08-29T08:00:00.000Z,4.55
2022-08-29T08:15:00.000Z,4.08
2022-08-29T08:30:00.000Z,4.91
2022-08-29T08:45:00.000Z,5.09
2022-08-29T09:00:00.000Z,5.42
2022-08-29T09:15:00.000Z,5.81
2022-08-29T09:30:00.000Z,7.27
2022-08-29T09:45:00.000Z,9.36
2022-08-29T10:00:00.000Z,8.93
2022-08-29T10:15:00.000Z,8.89
2022-08-29T10:30:00.000Z,8.94
2022-08-29T10:45:00.000Z,8.96
2022-08-29T11:00:00.000Z,8.62
2022-08-29T11:15:00.000Z,9.94
2022-08-29T11:30:00.000Z,9.11
2022-08-29T11:45:00.000Z,8.65
2022-08-29T12:00:00.000Z,7.61
2022-08-29T12:15:00.000Z,9.07
2022-08-29T12:30:00.000Z,8.16
2022-08-29T12:45:00.000Z,8.2
2022-08-29T13:00:00.000Z,7.89
2022-08-29T13:15:00.000Z,8.31
2022-08-29T13:30:00.000Z,8.32
2022-08-29T13:45:00.000Z,7.99
2022-08-29T14:00:00.000Z,8.62
2022-08-29T14:15:00.000Z,7.49
2022-08-29T14:30:00.000Z,7.67
2022-08-29T14:45:00.000Z,7.87
2022-08-29T15:00:00.000Z,7.52
2022-08-29T15:15:00.000Z,7.39
2022-08-29T15:30:00.000Z,7.22
2022-08-29T15:45:00.000Z,7.11
2022-08-29T16:00:00.000Z,7.48
2022-08-29T16:15:00.000Z,6.8
2022-08-29T16:30:00.000Z,6.87
2022-08-29T16:45:00.000Z,7.2
2022-08-29T17:00:00.000Z,7.13
2022-08-29T17:15:00.000Z,7.25
2022-08-29T17:30:00.000Z,7.59
2022-08-29T17:45:00.000Z,8.47
2022-08-29T18:00:00.000Z,8.79
2022-08-29T18:15:00.000Z,9.92
2022-08-29T18:30:00.000Z,10.76
2022-08-29T18:45:00.000Z,11.2
2022-08-29T19:00:00.000Z,11.14
2022-08-29T19:15:00.000Z,12.36
2022-08-29T19:30:00.000Z,12.39
2022-08-29T19:45:00.000Z,13.52
2022-08-29T20:00:00.000Z,13.18
2022-08-29T20:15:00.000Z,13.39
2022-08-29T20:30:00.000Z,13.24
2022-08-29T20:45:00.000Z,13.39
2022-08-29T21:00:00.000Z,13.96
2022-08-29T21:15:00.000Z,13.88
2022-08-29T21:30:00.000Z,13.8
2022-08-29T21:45:00.000Z,14.07
2022-08-29T22:00:00.000Z,14.98
2022-08-29T22:15:00.000Z,14.53
2022-08-29T22:30:00.000Z,14.48
2022-08-29T22:45:00.000Z,14.75
2022-08-29T23:00:00.000Z,14.92
2022-08-29T23:15:00.000Z,15.25
2022-08-29T23:30:00.000Z,14.87
2022-08-29T23:45:00.000Z,15.14
